sensor_id;sensor_type;location;lat;lon;timestamp;temperature;humidity
5743;DHT22;2896;53.500;10.020;2022-10-04T00:01:21;10.50;99.90
5743;DHT22;2896;53.500;10.020;2022-10-04T00:04:00;10.40;99.90
5743;DHT22;2896;53.500;10.020;2022-10-04T00:06:29;10.40;99.90
5743;DHT22;2896;53.500;10.020;2022-10-04T00:08:58;10.30;99.90
5743;DHT22;2896;53.500;10.020;2022-10-04T00:11:29;10.40;99.90
5743;DHT22;2896;53.500;10.020;2022-10-04T00:13:59;10.30;99.90
5743;DHT22;2896;53.500;10.020;2022-10-04T00:16:29;10.40;99.90
5743;DHT22;2896;53.500;10.020;2022-10-04T00:22:08;10.30;99.90
5743;DHT22;2896;53.500;10.020;2022-10-04T00:24:39;10.20;99.90
5743;DHT22;2896;53.500;10.020;2022-10-04T00:27:26;10.10;99.90
5743;DHT22;2896;53.500;10.020;2022-10-04T00:30:15;10.10;99.90
5743;DHT22;2896;53.500;10.020;2022-10-04T00:32:50;10.20;99.90
5743;DHT22;2896;53.500;10.020;2022-10-04T00:35:55;10.00;99.90
5743;DHT22;2896;53.500;10.020;2022-10-04T00:38:25;10.00;99.90
5743;DHT22;2896;53.500;10.020;2022-10-04T00:40:56;10.00;99.90
5743;DHT22;2896;53.500;10.020;2022-10-04T00:43:30;10.60;99.90
5743;DHT22;2896;53.500;10.020;2022-10-04T00:46:01;11.80;99.90
5743;DHT22;2896;53.500;10.020;2022-10-04T00:48:40;10.40;99.90
5743;DHT22;2896;53.500;10.020;2022-10-04T00:51:21;9.90;99.90
5743;DHT22;2896;53.500;10.020;2022-10-04T00:53:55;9.90;99.90
5743;DHT22;2896;53.500;10.020;2022-10-04T00:56:29;9.90;99.90
5743;DHT22;2896;53.500;10.020;2022-10-04T00:59:26;9.80;99.90
5743;DHT22;2896;53.500;10.020;2022-10-04T01:01:57;9.90;99.90
5743;DHT22;2896;53.500;10.020;2022-10-04T01:04:35;9.70;99.90
5743;DHT22;2896;53.500;10.020;2022-10-04T01:07:04;9.70;99.90
5743;DHT22;2896;53.500;10.020;2022-10-04T01:09:34;11.00;99.90
5743;DHT22;2896;53.500;10.020;2022-10-04T01:12:05;11.50;99.90
5743;DHT22;2896;53.500;10.020;2022-10-04T01:14:42;9.80;99.90
5743;DHT22;2896;53.500;10.020;2022-10-04T01:17:09;9.80;99.90
5743;DHT22;2896;53.500;10.020;2022-10-04T01:19:38;9.90;99.90
5743;DHT22;2896;53.500;10.020;2022-10-04T01:22:32;9.80;99.90
5743;DHT22;2896;53.500;10.020;2022-10-04T01:24:59;9.80;99.90
5743;DHT22;2896;53.500;10.020;2022-10-04T01:27:31;9.80;99.90
5743;DHT22;2896;53.500;10.020;2022-10-04T01:29:59;9.80;99.90
5743;DHT22;2896;53.500;10.020;2022-10-04T01:32:26;9.70;99.90
5743;DHT22;2896;53.500;10.020;2022-10-04T01:34:55;9.70;99.90
5743;DHT22;2896;53.500;10.020;2022-10-04T01:37:22;9.70;99.90
5743;DHT22;2896;53.500;10.020;2022-10-04T01:39:50;9.70;99.90
5743;DHT22;2896;53.500;10.020;2022-10-04T01:42:21;9.70;99.90
5743;DHT22;2896;53.500;10.020;2022-10-04T01:44:53;9.60;99.90
5743;DHT22;2896;53.500;10.020;2022-10-04T01:47:26;9.50;99.90
5743;DHT22;2896;53.500;10.020;2022-10-04T01:49:56;9.60;99.90
5743;DHT22;2896;53.500;10.020;2022-10-04T01:52:28;9.60;99.90
5743;DHT22;2896;53.500;10.020;2022-10-04T01:55:01;9.70;99.90
5743;DHT22;2896;53.500;10.020;2022-10-04T01:57:34;9.60;99.90
5743;DHT22;2896;53.500;10.020;2022-10-04T02:00:04;9.60;99.90
5743;DHT22;2896;53.500;10.020;2022-10-04T02:02:36;9.50;99.90
5743;DHT22;2896;53.500;10.020;2022-10-04T02:05:07;9.30;99.90
5743;DHT22;2896;53.500;10.020;2022-10-04T02:07:36;9.50;99.90
5743;DHT22;2896;53.500;10.020;2022-10-04T02:10:08;9.40;99.90
5743;DHT22;2896;53.500;10.020;2022-10-04T02:12:35;9.40;99.90
5743;DHT22;2896;53.500;10.020;2022-10-04T02:15:06;9.40;99.90
5743;DHT22;2896;53.500;10.020;2022-10-04T02:17:38;9.40;99.90
5743;DHT22;2896;53.500;10.020;2022-10-04T02:20:12;9.40;99.90
5743;DHT22;2896;53.500;10.020;2022-10-04T02:22:40;9.40;99.90
5743;DHT22;2896;53.500;10.020;2022-10-04T02:25:10;9.40;99.90
5743;DHT22;2896;53.500;10.020;2022-10-04T02:27:38;9.40;99.90
5743;DHT22;2896;53.500;10.020;2022-10-04T02:30:07;9.40;99.90
5743;DHT22;2896;53.500;10.020;2022-10-04T02:32:36;9.40;99.90
5743;DHT22;2896;53.500;10.020;2022-10-04T02:35:21;9.50;99.90
5743;DHT22;2896;53.500;10.020;2022-10-04T02:37:51;9.40;99.90
5743;DHT22;2896;53.500;10.020;2022-10-04T02:40:26;9.50;99.90
5743;DHT22;2896;53.500;10.020;2022-10-04T02:42:58;9.50;99.90
5743;DHT22;2896;53.500;10.020;2022-10-04T02:45:31;9.50;99.90
5743;DHT22;2896;53.500;10.020;2022-10-04T02:48:09;10.20;99.90
5743;DHT22;2896;53.500;10.020;2022-10-04T02:50:44;9.60;99.90
5743;DHT22;2896;53.500;10.020;2022-10-04T02:53:18;9.60;99.90
5743;DHT22;2896;53.500;10.020;2022-10-04T02:55:49;10.10;99.90
5743;DHT22;2896;53.500;10.020;2022-10-04T02:58:18;9.80;99.90
5743;DHT22;2896;53.500;10.020;2022-10-04T03:00:49;11.40;99.90
5743;DHT22;2896;53.500;10.020;2022-10-04T03:03:21;9.70;99.90
5743;DHT22;2896;53.500;10.020;2022-10-04T03:05:59;10.60;99.90
5743;DHT22;2896;53.500;10.020;2022-10-04T03:08:29;9.50;99.90
5743;DHT22;2896;53.500;10.020;2022-10-04T03:11:00;9.60;99.90
5743;DHT22;2896;53.500;10.020;2022-10-04T03:13:27;9.60;99.90
5743;DHT22;2896;53.500;10.020;2022-10-04T03:15:54;9.60;99.90
5743;DHT22;2896;53.500;10.020;2022-10-04T03:18:22;9.80;99.90
5743;DHT22;2896;53.500;10.020;2022-10-04T03:20:49;9.50;99.90
5743;DHT22;2896;53.500;10.020;2022-10-04T03:23:17;9.60;99.90
5743;DHT22;2896;53.500;10.020;2022-10-04T03:25:50;9.50;99.90
5743;DHT22;2896;53.500;10.020;2022-10-04T03:28:19;9.50;99.90
5743;DHT22;2896;53.500;10.020;2022-10-04T03:30:47;9.50;99.90
5743;DHT22;2896;53.500;10.020;2022-10-04T03:33:17;9.40;99.90
5743;DHT22;2896;53.500;10.020;2022-10-04T03:35:46;9.40;99.90
5743;DHT22;2896;53.500;10.020;2022-10-04T03:38:16;9.40;99.90
5743;DHT22;2896;53.500;10.020;2022-10-04T03:40:51;9.40;99.90
5743;DHT22;2896;53.500;10.020;2022-10-04T03:43:24;9.50;99.90
5743;DHT22;2896;53.500;10.020;2022-10-04T03:45:51;9.50;99.90
5743;DHT22;2896;53.500;10.020;2022-10-04T03:48:26;9.40;99.90
5743;DHT22;2896;53.500;10.020;2022-10-04T03:50:54;9.50;99.90
5743;DHT22;2896;53.500;10.020;2022-10-04T03:53:27;9.50;99.90
5743;DHT22;2896;53.500;10.020;2022-10-04T03:55:55;9.40;99.90
5743;DHT22;2896;53.500;10.020;2022-10-04T03:58:26;9.50;99.90
5743;DHT22;2896;53.500;10.020;2022-10-04T04:01:02;9.50;99.90
5743;DHT22;2896;53.500;10.020;2022-10-04T04:03:39;9.50;99.90
5743;DHT22;2896;53.500;10.020;2022-10-04T04:06:13;9.50;99.90
5743;DHT22;2896;53.500;10.020;2022-10-04T04:08:42;9.50;99.90
5743;DHT22;2896;53.500;10.020;2022-10-04T04:11:16;9.50;99.90
5743;DHT22;2896;53.500;10.020;2022-10-04T04:13:48;9.50;99.90
5743;DHT22;2896;53.500;10.020;2022-10-04T04:16:19;9.40;99.90
5743;DHT22;2896;53.500;10.020;2022-10-04T04:18:47;9.50;99.90
5743;DHT22;2896;53.500;10.020;2022-10-04T04:21:17;9.40;99.90
5743;DHT22;2896;53.500;10.020;2022-10-04T04:23:47;9.50;99.90
5743;DHT22;2896;53.500;10.020;2022-10-04T04:26:19;9.50;99.90
5743;DHT22;2896;53.500;10.020;2022-10-04T04:28:50;9.50;99.90
5743;DHT22;2896;53.500;10.020;2022-10-04T04:31:20;9.60;99.90
5743;DHT22;2896;53.500;10.020;2022-10-04T04:33:52;11.40;99.90
5743;DHT22;2896;53.500;10.020;2022-10-04T04:36:24;9.50;99.90
5743;DHT22;2896;53.500;10.020;2022-10-04T04:38:51;9.50;99.90
5743;DHT22;2896;53.500;10.020;2022-10-04T04:41:35;9.60;99.90
5743;DHT22;2896;53.500;10.020;2022-10-04T04:44:15;9.60;99.90
5743;DHT22;2896;53.500;10.020;2022-10-04T04:46:43;9.60;99.90
5743;DHT22;2896;53.500;10.020;2022-10-04T04:49:11;9.60;99.90
5743;DHT22;2896;53.500;10.020;2022-10-04T04:51:38;9.60;99.90
5743;DHT22;2896;53.500;10.020;2022-10-04T04:54:06;9.50;99.90
5743;DHT22;2896;53.500;10.020;2022-10-04T04:56:33;9.60;99.90
5743;DHT22;2896;53.500;10.020;2022-10-04T04:59:03;9.60;99.90
5743;DHT22;2896;53.500;10.020;2022-10-04T05:01:34;9.60;99.90
5743;DHT22;2896;53.500;10.020;2022-10-04T05:04:03;9.50;99.90
5743;DHT22;2896;53.500;10.020;2022-10-04T05:06:32;9.60;99.90
5743;DHT22;2896;53.500;10.020;2022-10-04T05:08:59;9.60;99.90
5743;DHT22;2896;53.500;10.020;2022-10-04T05:11:28;10.50;99.90
5743;DHT22;2896;53.500;10.020;2022-10-04T05:13:58;9.60;99.90
5743;DHT22;2896;53.500;10.020;2022-10-04T05:16:33;9.70;99.90
5743;DHT22;2896;53.500;10.020;2022-10-04T05:19:04;9.60;99.90
5743;DHT22;2896;53.500;10.020;2022-10-04T05:21:32;9.60;99.90
5743;DHT22;2896;53.500;10.020;2022-10-04T05:24:08;9.60;99.90
5743;DHT22;2896;53.500;10.020;2022-10-04T05:26:36;9.60;99.90
5743;DHT22;2896;53.500;10.020;2022-10-04T05:29:08;9.50;99.90
5743;DHT22;2896;53.500;10.020;2022-10-04T05:31:44;9.60;99.90
5743;DHT22;2896;53.500;10.020;2022-10-04T05:34:22;11.20;99.90
5743;DHT22;2896;53.500;10.020;2022-10-04T05:37:11;9.70;99.90
5743;DHT22;2896;53.500;10.020;2022-10-04T05:39:47;9.70;99.90
5743;DHT22;2896;53.500;10.020;2022-10-04T05:42:20;9.70;99.90
5743;DHT22;2896;53.500;10.020;2022-10-04T05:44:49;9.60;99.90
5743;DHT22;2896;53.500;10.020;2022-10-04T05:47:20;9.70;99.90
5743;DHT22;2896;53.500;10.020;2022-10-04T05:49:50;9.70;99.90
5743;DHT22;2896;53.500;10.020;2022-10-04T05:52:25;9.60;99.90
5743;DHT22;2896;53.500;10.020;2022-10-04T05:58:12;9.70;99.90
5743;DHT22;2896;53.500;10.020;2022-10-04T06:00:55;9.60;99.90
5743;DHT22;2896;53.500;10.020;2022-10-04T06:03:41;10.30;99.90
5743;DHT22;2896;53.500;10.020;2022-10-04T06:06:16;9.70;99.90
5743;DHT22;2896;53.500;10.020;2022-10-04T06:08:55;9.70;99.90
5743;DHT22;2896;53.500;10.020;2022-10-04T06:11:48;9.60;99.90
5743;DHT22;2896;53.500;10.020;2022-10-04T06:14:44;7.80;99.90
5743;DHT22;2896;53.500;10.020;2022-10-04T06:17:26;9.60;99.90
5743;DHT22;2896;53.500;10.020;2022-10-04T06:20:21;9.60;99.90
5743;DHT22;2896;53.500;10.020;2022-10-04T06:22:56;9.50;99.90
5743;DHT22;2896;53.500;10.020;2022-10-04T06:25:26;9.50;99.90
5743;DHT22;2896;53.500;10.020;2022-10-04T06:27:56;10.80;99.90
5743;DHT22;2896;53.500;10.020;2022-10-04T06:30:39;10.10;99.90
5743;DHT22;2896;53.500;10.020;2022-10-04T06:33:30;10.90;99.90
5743;DHT22;2896;53.500;10.020;2022-10-04T06:36:32;9.50;99.90
5743;DHT22;2896;53.500;10.020;2022-10-04T06:39:17;9.40;99.90
5743;DHT22;2896;53.500;10.020;2022-10-04T06:42:03;9.40;99.90
5743;DHT22;2896;53.500;10.020;2022-10-04T06:44:41;9.60;99.90
5743;DHT22;2896;53.500;10.020;2022-10-04T06:47:25;9.80;99.90
5743;DHT22;2896;53.500;10.020;2022-10-04T06:49:59;9.90;99.90
5743;DHT22;2896;53.500;10.020;2022-10-04T06:56:12;10.30;99.90
5743;DHT22;2896;53.500;10.020;2022-10-04T06:59:03;10.50;99.90
5743;DHT22;2896;53.500;10.020;2022-10-04T07:01:33;10.70;99.90
5743;DHT22;2896;53.500;10.020;2022-10-04T07:04:09;12.90;99.90
5743;DHT22;2896;53.500;10.020;2022-10-04T07:06:45;11.10;99.90
5743;DHT22;2896;53.500;10.020;2022-10-04T07:09:18;11.30;99.90
5743;DHT22;2896;53.500;10.020;2022-10-04T07:11:52;13.00;99.90
5743;DHT22;2896;53.500;10.020;2022-10-04T07:14:23;13.40;99.90
5743;DHT22;2896;53.500;10.020;2022-10-04T07:16:57;12.40;99.90
5743;DHT22;2896;53.500;10.020;2022-10-04T07:19:32;13.20;99.90
5743;DHT22;2896;53.500;10.020;2022-10-04T07:22:08;13.10;99.90
5743;DHT22;2896;53.500;10.020;2022-10-04T07:25:06;14.20;99.90
5743;DHT22;2896;53.500;10.020;2022-10-04T07:27:46;12.70;99.90
5743;DHT22;2896;53.500;10.020;2022-10-04T07:30:39;12.70;99.90
5743;DHT22;2896;53.500;10.020;2022-10-04T07:33:08;12.90;99.90
5743;DHT22;2896;53.500;10.020;2022-10-04T07:35:45;13.70;99.90
5743;DHT22;2896;53.500;10.020;2022-10-04T07:38:18;12.90;99.90
5743;DHT22;2896;53.500;10.020;2022-10-04T07:41:00;12.80;99.90
5743;DHT22;2896;53.500;10.020;2022-10-04T07:43:30;12.80;99.90
5743;DHT22;2896;53.500;10.020;2022-10-04T07:46:02;12.80;99.90
5743;DHT22;2896;53.500;10.020;2022-10-04T07:48:30;13.90;99.90
5743;DHT22;2896;53.500;10.020;2022-10-04T07:51:02;12.90;99.90
5743;DHT22;2896;53.500;10.020;2022-10-04T07:53:40;12.90;99.90
5743;DHT22;2896;53.500;10.020;2022-10-04T07:56:16;13.00;99.90
5743;DHT22;2896;53.500;10.020;2022-10-04T07:58:50;15.00;99.90
5743;DHT22;2896;53.500;10.020;2022-10-04T08:01:25;13.10;99.90
5743;DHT22;2896;53.500;10.020;2022-10-04T08:04:23;14.20;99.90
5743;DHT22;2896;53.500;10.020;2022-10-04T08:06:57;13.20;99.90
5743;DHT22;2896;53.500;10.020;2022-10-04T08:09:35;13.30;99.90
5743;DHT22;2896;53.500;10.020;2022-10-04T08:12:13;13.40;99.90
5743;DHT22;2896;53.500;10.020;2022-10-04T08:14:51;13.60;99.90
5743;DHT22;2896;53.500;10.020;2022-10-04T08:17:32;13.60;99.90
5743;DHT22;2896;53.500;10.020;2022-10-04T08:20:18;13.70;99.90
5743;DHT22;2896;53.500;10.020;2022-10-04T08:22:53;14.30;99.90
5743;DHT22;2896;53.500;10.020;2022-10-04T08:25:27;13.80;99.90
5743;DHT22;2896;53.500;10.020;2022-10-04T08:28:03;14.00;99.90
5743;DHT22;2896;53.500;10.020;2022-10-04T08:31:03;14.00;99.90
5743;DHT22;2896;53.500;10.020;2022-10-04T08:33:50;14.10;99.90
5743;DHT22;2896;53.500;10.020;2022-10-04T08:36:29;14.20;99.90
5743;DHT22;2896;53.500;10.020;2022-10-04T08:39:06;14.40;99.90
5743;DHT22;2896;53.500;10.020;2022-10-04T08:45:19;14.80;99.90
5743;DHT22;2896;53.500;10.020;2022-10-04T08:48:24;15.00;99.90
5743;DHT22;2896;53.500;10.020;2022-10-04T08:56:56;15.20;1.00
5743;DHT22;2896;53.500;10.020;2022-10-04T08:59:42;15.40;1.00
5743;DHT22;2896;53.500;10.020;2022-10-04T09:02:52;15.50;1.00
5743;DHT22;2896;53.500;10.020;2022-10-04T09:05:51;15.50;1.00
5743;DHT22;2896;53.500;10.020;2022-10-04T09:11:40;15.60;99.90
5743;DHT22;2896;53.500;10.020;2022-10-04T09:14:37;15.70;99.90
5743;DHT22;2896;53.500;10.020;2022-10-04T09:17:18;15.80;1.00
5743;DHT22;2896;53.500;10.020;2022-10-04T09:19:53;15.70;1.00
5743;DHT22;2896;53.500;10.020;2022-10-04T09:22:34;15.80;1.00
5743;DHT22;2896;53.500;10.020;2022-10-04T09:28:35;16.00;1.00
5743;DHT22;2896;53.500;10.020;2022-10-04T09:34:27;16.20;1.00
5743;DHT22;2896;53.500;10.020;2022-10-04T09:43:52;16.40;1.00
5743;DHT22;2896;53.500;10.020;2022-10-04T09:46:48;16.40;99.90
5743;DHT22;2896;53.500;10.020;2022-10-04T09:49:32;16.40;99.90
5743;DHT22;2896;53.500;10.020;2022-10-04T09:52:12;16.50;99.90
5743;DHT22;2896;53.500;10.020;2022-10-04T09:55:05;16.50;99.90
5743;DHT22;2896;53.500;10.020;2022-10-04T09:57:47;16.40;99.90
5743;DHT22;2896;53.500;10.020;2022-10-04T10:00:22;16.60;99.90
5743;DHT22;2896;53.500;10.020;2022-10-04T10:09:07;16.80;99.90
5743;DHT22;2896;53.500;10.020;2022-10-04T10:11:42;16.80;99.90
5743;DHT22;2896;53.500;10.020;2022-10-04T10:14:59;16.90;99.90
5743;DHT22;2896;53.500;10.020;2022-10-04T10:17:37;17.10;99.90
5743;DHT22;2896;53.500;10.020;2022-10-04T10:20:33;17.20;99.90
5743;DHT22;2896;53.500;10.020;2022-10-04T10:23:25;17.20;99.90
5743;DHT22;2896;53.500;10.020;2022-10-04T10:26:17;17.30;99.90
5743;DHT22;2896;53.500;10.020;2022-10-04T10:29:05;17.10;99.90
5743;DHT22;2896;53.500;10.020;2022-10-04T10:31:47;17.10;99.90
5743;DHT22;2896;53.500;10.020;2022-10-04T10:34:47;17.10;99.90
5743;DHT22;2896;53.500;10.020;2022-10-04T10:37:31;17.10;99.90
5743;DHT22;2896;53.500;10.020;2022-10-04T10:40:18;17.10;99.90
5743;DHT22;2896;53.500;10.020;2022-10-04T10:43:08;17.40;99.90
5743;DHT22;2896;53.500;10.020;2022-10-04T10:46:01;17.70;99.90
5743;DHT22;2896;53.500;10.020;2022-10-04T10:48:49;18.00;99.90
5743;DHT22;2896;53.500;10.020;2022-10-04T10:51:43;18.40;99.90
5743;DHT22;2896;53.500;10.020;2022-10-04T10:54:30;18.70;99.90
5743;DHT22;2896;53.500;10.020;2022-10-04T10:57:10;18.70;99.90
5743;DHT22;2896;53.500;10.020;2022-10-04T11:06:22;18.70;99.90
5743;DHT22;2896;53.500;10.020;2022-10-04T11:09:18;18.30;99.90
5743;DHT22;2896;53.500;10.020;2022-10-04T11:15:33;18.40;99.90
5743;DHT22;2896;53.500;10.020;2022-10-04T11:24:18;19.40;99.90
5743;DHT22;2896;53.500;10.020;2022-10-04T11:27:02;19.40;99.90
5743;DHT22;2896;53.500;10.020;2022-10-04T11:29:40;19.80;99.90
5743;DHT22;2896;53.500;10.020;2022-10-04T11:32:27;20.00;99.90
5743;DHT22;2896;53.500;10.020;2022-10-04T11:35:33;19.70;99.90
5743;DHT22;2896;53.500;10.020;2022-10-04T11:38:09;19.30;99.90
5743;DHT22;2896;53.500;10.020;2022-10-04T11:41:01;19.50;99.90
5743;DHT22;2896;53.500;10.020;2022-10-04T11:43:56;19.70;99.90
5743;DHT22;2896;53.500;10.020;2022-10-04T11:46:32;20.10;99.90
5743;DHT22;2896;53.500;10.020;2022-10-04T11:49:10;20.40;99.90
5743;DHT22;2896;53.500;10.020;2022-10-04T11:52:00;20.40;99.90
5743;DHT22;2896;53.500;10.020;2022-10-04T11:54:57;20.00;99.90
5743;DHT22;2896;53.500;10.020;2022-10-04T11:57:37;20.20;99.90
5743;DHT22;2896;53.500;10.020;2022-10-04T12:00:10;20.00;99.90
5743;DHT22;2896;53.500;10.020;2022-10-04T12:03:16;20.60;99.90
5743;DHT22;2896;53.500;10.020;2022-10-04T12:08:59;20.80;99.90
5743;DHT22;2896;53.500;10.020;2022-10-04T12:11:59;20.60;99.90
5743;DHT22;2896;53.500;10.020;2022-10-04T12:18:15;20.50;99.90
5743;DHT22;2896;53.500;10.020;2022-10-04T12:21:17;20.60;99.90
5743;DHT22;2896;53.500;10.020;2022-10-04T12:24:00;20.60;99.90
5743;DHT22;2896;53.500;10.020;2022-10-04T12:27:00;21.20;99.90
5743;DHT22;2896;53.500;10.020;2022-10-04T12:29:52;21.40;99.90
5743;DHT22;2896;53.500;10.020;2022-10-04T12:32:29;21.60;99.90
5743;DHT22;2896;53.500;10.020;2022-10-04T12:35:06;21.50;99.90
5743;DHT22;2896;53.500;10.020;2022-10-04T12:37:45;21.40;99.90
5743;DHT22;2896;53.500;10.020;2022-10-04T12:40:23;21.60;99.90
5743;DHT22;2896;53.500;10.020;2022-10-04T12:42:57;21.40;99.90
5743;DHT22;2896;53.500;10.020;2022-10-04T12:45:44;21.80;99.90
5743;DHT22;2896;53.500;10.020;2022-10-04T12:48:21;21.60;99.90
5743;DHT22;2896;53.500;10.020;2022-10-04T12:50:55;21.40;99.90
5743;DHT22;2896;53.500;10.020;2022-10-04T12:53:37;21.50;99.90
5743;DHT22;2896;53.500;10.020;2022-10-04T12:56:13;21.80;99.90
5743;DHT22;2896;53.500;10.020;2022-10-04T12:59:00;21.90;99.90
5743;DHT22;2896;53.500;10.020;2022-10-04T13:01:35;21.90;99.90
5743;DHT22;2896;53.500;10.020;2022-10-04T13:04:22;21.70;99.90
5743;DHT22;2896;53.500;10.020;2022-10-04T13:06:59;21.60;99.90
5743;DHT22;2896;53.500;10.020;2022-10-04T13:09:37;21.40;99.90
5743;DHT22;2896;53.500;10.020;2022-10-04T13:12:25;21.40;99.90
5743;DHT22;2896;53.500;10.020;2022-10-04T13:15:02;21.20;99.90
5743;DHT22;2896;53.500;10.020;2022-10-04T13:17:41;21.00;99.90
5743;DHT22;2896;53.500;10.020;2022-10-04T13:20:23;21.30;99.90
5743;DHT22;2896;53.500;10.020;2022-10-04T13:22:58;21.30;99.90
5743;DHT22;2896;53.500;10.020;2022-10-04T13:25:38;21.20;99.90
5743;DHT22;2896;53.500;10.020;2022-10-04T13:28:16;21.10;99.90
5743;DHT22;2896;53.500;10.020;2022-10-04T13:30:50;19.90;99.90
5743;DHT22;2896;53.500;10.020;2022-10-04T13:33:29;21.30;99.90
5743;DHT22;2896;53.500;10.020;2022-10-04T13:36:04;21.40;99.90
5743;DHT22;2896;53.500;10.020;2022-10-04T13:38:48;21.60;99.90
5743;DHT22;2896;53.500;10.020;2022-10-04T13:41:26;21.80;99.90
5743;DHT22;2896;53.500;10.020;2022-10-04T13:44:28;21.50;99.90
5743;DHT22;2896;53.500;10.020;2022-10-04T13:47:18;21.60;99.90
5743;DHT22;2896;53.500;10.020;2022-10-04T13:49:58;21.60;99.90
5743;DHT22;2896;53.500;10.020;2022-10-04T13:52:39;21.80;99.90
5743;DHT22;2896;53.500;10.020;2022-10-04T13:55:31;21.70;99.90
5743;DHT22;2896;53.500;10.020;2022-10-04T13:58:31;21.30;99.90
5743;DHT22;2896;53.500;10.020;2022-10-04T14:04:03;21.40;99.90
5743;DHT22;2896;53.500;10.020;2022-10-04T14:06:54;21.50;99.90
5743;DHT22;2896;53.500;10.020;2022-10-04T14:10:01;21.60;99.90
5743;DHT22;2896;53.500;10.020;2022-10-04T14:12:59;21.70;99.90
5743;DHT22;2896;53.500;10.020;2022-10-04T14:15:48;21.60;99.90
5743;DHT22;2896;53.500;10.020;2022-10-04T14:21:45;21.30;99.90
5743;DHT22;2896;53.500;10.020;2022-10-04T14:24:41;21.40;99.90
5743;DHT22;2896;53.500;10.020;2022-10-04T14:27:31;21.50;99.90
5743;DHT22;2896;53.500;10.020;2022-10-04T14:30:16;21.50;99.90
5743;DHT22;2896;53.500;10.020;2022-10-04T14:35:43;21.30;99.90
5743;DHT22;2896;53.500;10.020;2022-10-04T14:38:36;21.30;99.90
5743;DHT22;2896;53.500;10.020;2022-10-04T14:41:30;21.10;99.90
5743;DHT22;2896;53.500;10.020;2022-10-04T14:44:24;21.00;99.90
5743;DHT22;2896;53.500;10.020;2022-10-04T14:47:04;21.50;99.90
5743;DHT22;2896;53.500;10.020;2022-10-04T14:49:57;21.50;99.90
5743;DHT22;2896;53.500;10.020;2022-10-04T14:52:34;21.30;99.90
5743;DHT22;2896;53.500;10.020;2022-10-04T14:55:18;21.40;99.90
5743;DHT22;2896;53.500;10.020;2022-10-04T14:57:57;21.20;99.90
5743;DHT22;2896;53.500;10.020;2022-10-04T15:00:32;21.00;99.90
5743;DHT22;2896;53.500;10.020;2022-10-04T15:06:08;20.30;99.90
5743;DHT22;2896;53.500;10.020;2022-10-04T15:11:37;20.30;99.90
5743;DHT22;2896;53.500;10.020;2022-10-04T15:14:22;20.40;99.90
5743;DHT22;2896;53.500;10.020;2022-10-04T15:16:54;20.20;99.90
5743;DHT22;2896;53.500;10.020;2022-10-04T15:19:26;20.00;99.90
5743;DHT22;2896;53.500;10.020;2022-10-04T15:22:01;19.70;99.90
5743;DHT22;2896;53.500;10.020;2022-10-04T15:24:31;19.50;99.90
5743;DHT22;2896;53.500;10.020;2022-10-04T15:30:20;19.20;99.90
5743;DHT22;2896;53.500;10.020;2022-10-04T15:32:58;19.30;99.90
5743;DHT22;2896;53.500;10.020;2022-10-04T15:35:38;19.10;99.90
5743;DHT22;2896;53.500;10.020;2022-10-04T15:38:19;18.90;99.90
5743;DHT22;2896;53.500;10.020;2022-10-04T15:40:59;19.00;99.90
5743;DHT22;2896;53.500;10.020;2022-10-04T15:43:30;18.90;99.90
5743;DHT22;2896;53.500;10.020;2022-10-04T15:46:25;19.20;99.90
5743;DHT22;2896;53.500;10.020;2022-10-04T15:49:21;18.90;99.90
5743;DHT22;2896;53.500;10.020;2022-10-04T15:52:04;18.70;99.90
5743;DHT22;2896;53.500;10.020;2022-10-04T15:55:02;18.60;99.90
5743;DHT22;2896;53.500;10.020;2022-10-04T15:57:36;18.40;99.90
5743;DHT22;2896;53.500;10.020;2022-10-04T16:00:20;18.20;99.90
5743;DHT22;2896;53.500;10.020;2022-10-04T16:03:02;18.20;99.90
5743;DHT22;2896;53.500;10.020;2022-10-04T16:05:37;18.10;99.90
5743;DHT22;2896;53.500;10.020;2022-10-04T16:11:49;17.80;99.90
5743;DHT22;2896;53.500;10.020;2022-10-04T16:14:34;17.60;99.90
5743;DHT22;2896;53.500;10.020;2022-10-04T16:17:23;17.50;99.90
5743;DHT22;2896;53.500;10.020;2022-10-04T16:23:29;17.10;99.90
5743;DHT22;2896;53.500;10.020;2022-10-04T16:25:56;17.10;99.90
5743;DHT22;2896;53.500;10.020;2022-10-04T16:28:44;17.00;99.90
5743;DHT22;2896;53.500;10.020;2022-10-04T16:31:23;16.80;99.90
5743;DHT22;2896;53.500;10.020;2022-10-04T16:33:57;16.70;99.90
5743;DHT22;2896;53.500;10.020;2022-10-04T16:36:29;18.60;99.90
5743;DHT22;2896;53.500;10.020;2022-10-04T16:39:10;16.40;99.90
5743;DHT22;2896;53.500;10.020;2022-10-04T16:41:58;16.30;99.90
5743;DHT22;2896;53.500;10.020;2022-10-04T16:44:33;16.10;99.90
5743;DHT22;2896;53.500;10.020;2022-10-04T16:47:09;15.90;99.90
5743;DHT22;2896;53.500;10.020;2022-10-04T16:49:48;15.90;99.90
5743;DHT22;2896;53.500;10.020;2022-10-04T16:52:37;15.70;99.90
5743;DHT22;2896;53.500;10.020;2022-10-04T16:55:24;15.50;99.90
5743;DHT22;2896;53.500;10.020;2022-10-04T17:04:24;14.90;99.90
5743;DHT22;2896;53.500;10.020;2022-10-04T17:06:56;14.70;99.90
5743;DHT22;2896;53.500;10.020;2022-10-04T17:09:27;14.50;99.90
5743;DHT22;2896;53.500;10.020;2022-10-04T17:12:15;14.40;99.90
5743;DHT22;2896;53.500;10.020;2022-10-04T17:14:56;14.30;99.90
5743;DHT22;2896;53.500;10.020;2022-10-04T17:17:42;14.20;99.90
5743;DHT22;2896;53.500;10.020;2022-10-04T17:20:16;14.00;99.90
5743;DHT22;2896;53.500;10.020;2022-10-04T17:22:59;13.90;99.90
5743;DHT22;2896;53.500;10.020;2022-10-04T17:25:35;13.70;99.90
5743;DHT22;2896;53.500;10.020;2022-10-04T17:28:18;13.60;99.90
5743;DHT22;2896;53.500;10.020;2022-10-04T17:30:55;13.50;99.90
5743;DHT22;2896;53.500;10.020;2022-10-04T17:33:31;13.50;99.90
5743;DHT22;2896;53.500;10.020;2022-10-04T17:36:32;13.40;99.90
5743;DHT22;2896;53.500;10.020;2022-10-04T17:39:10;13.30;99.90
5743;DHT22;2896;53.500;10.020;2022-10-04T17:41:58;13.20;99.90
5743;DHT22;2896;53.500;10.020;2022-10-04T17:44:39;13.10;99.90
5743;DHT22;2896;53.500;10.020;2022-10-04T17:47:12;13.00;99.90
5743;DHT22;2896;53.500;10.020;2022-10-04T17:49:50;12.90;1.00
5743;DHT22;2896;53.500;10.020;2022-10-04T17:52:41;12.90;1.00
5743;DHT22;2896;53.500;10.020;2022-10-04T17:55:32;12.70;1.00
5743;DHT22;2896;53.500;10.020;2022-10-04T17:58:09;12.60;99.90
5743;DHT22;2896;53.500;10.020;2022-10-04T18:00:53;12.60;1.00
5743;DHT22;2896;53.500;10.020;2022-10-04T18:03:24;12.50;1.00
5743;DHT22;2896;53.500;10.020;2022-10-04T18:05:53;12.50;1.00
5743;DHT22;2896;53.500;10.020;2022-10-04T18:08:38;12.40;1.00
5743;DHT22;2896;53.500;10.020;2022-10-04T18:11:19;12.30;1.00
5743;DHT22;2896;53.500;10.020;2022-10-04T18:13:49;12.30;1.00
5743;DHT22;2896;53.500;10.020;2022-10-04T18:16:23;12.20;1.00
5743;DHT22;2896;53.500;10.020;2022-10-04T18:18:51;12.20;1.00
5743;DHT22;2896;53.500;10.020;2022-10-04T18:21:21;12.10;1.00
5743;DHT22;2896;53.500;10.020;2022-10-04T18:23:55;12.10;1.00
5743;DHT22;2896;53.500;10.020;2022-10-04T18:26:26;12.00;1.00
5743;DHT22;2896;53.500;10.020;2022-10-04T18:28:53;11.90;1.00
5743;DHT22;2896;53.500;10.020;2022-10-04T18:31:31;11.90;1.00
5743;DHT22;2896;53.500;10.020;2022-10-04T18:34:12;11.80;1.00
5743;DHT22;2896;53.500;10.020;2022-10-04T18:36:51;11.80;1.00
5743;DHT22;2896;53.500;10.020;2022-10-04T18:39:20;11.70;1.00
5743;DHT22;2896;53.500;10.020;2022-10-04T18:42:00;11.70;1.00